Terminal Aerodrome Forecast
Issued by NWS

Home | Current Version | Previous Version | Text Only | Print | Product List | Glossary On
Versions: 1 2 3 4 5 6 7 8 9 10 11 12 13
000
FTUS43 KGRR 252340
TAFLAN
TAF
KLAN 252340Z 2600/2624 20007KT P6SM SCT060 BKN250
     FM260500 18005KT 6SM -SHRA BR VCTS BKN060CB
     FM260800 16008KT 4SM BR BKN060
     FM261400 18009KT P6SM SCT060=

USA.gov is the U.S. government's official web portal to all federal, state and local government web resources and services.